createdAt,value
2022-08-05T00:01:29.262Z,92.00
2022-08-05T00:03:57.006Z,91.80
2022-08-05T00:06:32.219Z,91.90
2022-08-05T00:09:00.535Z,91.70
2022-08-05T00:11:34.441Z,91.80
2022-08-05T00:14:12.887Z,91.80
2022-08-05T00:16:52.712Z,91.70
2022-08-05T00:19:25.106Z,91.80
2022-08-05T00:22:01.280Z,91.90
2022-08-05T00:24:31.106Z,92.00
2022-08-05T00:26:59.667Z,91.80
2022-08-05T00:29:27.641Z,91.80
2022-08-05T00:32:12.499Z,91.70
2022-08-05T00:35:03.641Z,91.80
2022-08-05T00:37:50.496Z,91.90
2022-08-05T00:40:26.790Z,92.30
2022-08-05T00:43:01.351Z,92.50
2022-08-05T00:45:38.905Z,92.60
2022-08-05T00:48:16.220Z,92.60
2022-08-05T00:50:46.136Z,93.60
2022-08-05T00:53:45.031Z,94.10
2022-08-05T00:56:03.338Z,94.40
2022-08-05T00:58:30.255Z,94.60
2022-08-05T01:00:57.310Z,94.90
2022-08-05T01:03:30.898Z,95.30
2022-08-05T01:06:01.201Z,95.50
2022-08-05T01:08:40.259Z,94.70
2022-08-05T01:11:22.118Z,94.10
2022-08-05T01:14:17.896Z,94.50
2022-08-05T01:17:05.274Z,94.10
2022-08-05T01:20:00.681Z,93.70
2022-08-05T01:22:57.400Z,93.50
2022-08-05T01:25:54.257Z,93.20
2022-08-05T01:28:36.368Z,93.30
2022-08-05T01:31:16.770Z,93.30
2022-08-05T01:33:56.618Z,93.20
2022-08-05T01:36:29.439Z,95.40
2022-08-05T01:39:01.154Z,95.90
2022-08-05T01:41:33.211Z,96.50
2022-08-05T01:44:02.134Z,96.20
2022-08-05T01:46:42.466Z,95.10
2022-08-05T01:49:23.620Z,94.70
2022-08-05T01:51:55.932Z,95.00
2022-08-05T01:54:29.196Z,94.40
2022-08-05T01:58:09.266Z,94.10
2022-08-05T01:59:48.366Z,94.00
2022-08-05T02:02:17.983Z,93.90
2022-08-05T02:04:49.531Z,93.30
2022-08-05T02:07:22.203Z,93.40
2022-08-05T02:09:50.350Z,92.90
2022-08-05T02:12:32.887Z,93.60
2022-08-05T02:15:19.721Z,92.40
2022-08-05T02:18:32.100Z,92.20
2022-08-05T02:20:53.624Z,92.20
2022-08-05T02:23:33.769Z,92.30
2022-08-05T02:26:06.233Z,92.50
2022-08-05T02:28:41.694Z,92.80
2022-08-05T02:31:17.170Z,93.00
2022-08-05T02:33:58.214Z,93.00
2022-08-05T02:36:27.266Z,93.10
2022-08-05T02:38:57.534Z,93.30
2022-08-05T02:41:28.865Z,93.60
2022-08-05T02:44:13.276Z,93.80
2022-08-05T02:46:53.779Z,94.10
2022-08-05T02:49:36.037Z,94.00
2022-08-05T02:52:08.009Z,93.50
2022-08-05T02:54:41.676Z,93.50
2022-08-05T02:58:12.296Z,94.10
2022-08-05T03:00:02.761Z,93.70
2022-08-05T03:02:35.073Z,94.10
2022-08-05T03:05:04.250Z,94.70
2022-08-05T03:08:00.115Z,94.50
2022-08-05T03:10:24.392Z,95.00
2022-08-05T03:12:54.216Z,95.30
2022-08-05T03:15:23.414Z,95.50
2022-08-05T03:17:54.189Z,95.10
2022-08-05T03:20:24.547Z,95.20
2022-08-05T03:22:52.348Z,95.30
2022-08-05T03:25:33.444Z,95.20
2022-08-05T03:28:09.071Z,95.10
2022-08-05T03:30:38.277Z,95.10
2022-08-05T03:33:08.385Z,95.30
2022-08-05T03:35:41.206Z,95.40
2022-08-05T03:38:11.500Z,95.60
2022-08-05T03:40:44.916Z,96.00
2022-08-05T03:43:58.688Z,96.40
2022-08-05T03:46:01.648Z,96.40
2022-08-05T03:48:30.192Z,95.50
2022-08-05T03:52:37.588Z,95.90
2022-08-05T03:55:52.656Z,96.20
2022-08-05T03:56:51.309Z,96.60
2022-08-05T03:59:26.112Z,96.70
2022-08-05T04:01:59.246Z,96.70
2022-08-05T04:04:28.426Z,96.70
2022-08-05T04:06:56.053Z,96.80
2022-08-05T04:09:26.380Z,97.00
2022-08-05T04:11:56.504Z,97.10
2022-08-05T04:14:29.878Z,97.30
2022-08-05T04:17:00.216Z,97.20
2022-08-05T04:19:29.343Z,97.30
2022-08-05T04:22:09.812Z,97.20
2022-08-05T04:24:52.950Z,97.40
2022-08-05T04:27:42.161Z,97.50
2022-08-05T04:30:08.534Z,97.60
2022-08-05T04:32:36.386Z,97.80
2022-08-05T04:35:04.647Z,98.00
2022-08-05T04:38:00.545Z,98.10
2022-08-05T04:40:20.047Z,98.20
2022-08-05T04:42:46.976Z,98.50
2022-08-05T04:45:22.953Z,98.30
2022-08-05T04:48:18.512Z,98.60
2022-08-05T04:51:02.696Z,98.90
2022-08-05T04:53:38.926Z,98.90
2022-08-05T04:56:33.626Z,98.90
2022-08-05T04:58:56.701Z,98.20
2022-08-05T05:01:33.796Z,97.90
2022-08-05T05:04:10.834Z,98.00
2022-08-05T05:06:44.423Z,97.80
2022-08-05T05:09:13.326Z,97.30
2022-08-05T05:11:55.541Z,97.20
2022-08-05T05:14:31.234Z,98.20
2022-08-05T05:16:59.806Z,97.60
2022-08-05T05:19:36.433Z,97.50
2022-08-05T05:22:23.888Z,97.20
2022-08-05T05:24:58.091Z,97.70
2022-08-05T05:27:45.015Z,97.70
2022-08-05T05:30:29.032Z,97.30
2022-08-05T05:33:00.710Z,97.50
2022-08-05T05:35:34.266Z,97.00
2022-08-05T05:38:06.434Z,96.80
2022-08-05T05:40:36.577Z,96.50
2022-08-05T05:43:03.463Z,96.40
2022-08-05T05:45:30.880Z,95.90
2022-08-05T05:48:06.555Z,95.50
2022-08-05T05:50:41.317Z,95.60
2022-08-05T05:53:22.550Z,95.00
2022-08-05T05:55:52.385Z,95.20
2022-08-05T05:58:30.374Z,95.00
2022-08-05T06:01:12.767Z,94.40
2022-08-05T06:04:01.707Z,94.10
2022-08-05T06:06:33.025Z,94.30
2022-08-05T06:09:03.846Z,94.00
2022-08-05T06:11:34.435Z,94.10
2022-08-05T06:14:02.149Z,94.50
2022-08-05T06:16:36.980Z,93.60
2022-08-05T06:19:07.429Z,93.50
2022-08-05T06:21:38.393Z,94.40
2022-08-05T06:24:11.372Z,94.00
2022-08-05T06:26:51.049Z,94.20
2022-08-05T06:29:25.185Z,94.30
2022-08-05T06:32:26.358Z,94.20
2022-08-05T06:34:57.117Z,94.30
2022-08-05T06:37:56.182Z,94.60
2022-08-05T06:40:18.213Z,94.10
2022-08-05T06:42:52.273Z,94.30
2022-08-05T06:45:44.380Z,94.20
2022-08-05T06:48:44.294Z,94.60
2022-08-05T06:50:56.155Z,94.00
2022-08-05T06:53:27.918Z,93.80
2022-08-05T06:55:58.959Z,94.20
2022-08-05T06:58:29.733Z,94.00
2022-08-05T07:01:03.499Z,94.10
2022-08-05T07:03:32.946Z,93.50
2022-08-05T07:06:05.886Z,93.50
2022-08-05T07:08:47.906Z,93.70
2022-08-05T07:11:22.192Z,93.50
2022-08-05T07:14:20.126Z,93.00
2022-08-05T07:17:57.054Z,93.00
2022-08-05T07:22:35.761Z,92.40
2022-08-05T07:25:22.065Z,91.70
2022-08-05T07:27:58.271Z,91.70
2022-08-05T07:30:38.503Z,91.60
2022-08-05T07:33:15.630Z,91.00
2022-08-05T07:36:04.715Z,90.50
2022-08-05T07:38:33.758Z,90.20
2022-08-05T07:42:09.175Z,90.10
2022-08-05T07:43:59.003Z,89.70
2022-08-05T07:46:27.768Z,90.00
2022-08-05T07:49:02.099Z,89.80
2022-08-05T07:51:53.199Z,89.60
2022-08-05T07:54:33.288Z,89.20
2022-08-05T07:57:18.113Z,87.80
2022-08-05T07:59:49.346Z,86.50
2022-08-05T08:02:19.699Z,85.60
2022-08-05T08:04:54.951Z,85.10
2022-08-05T08:07:23.307Z,83.10
2022-08-05T08:09:52.914Z,82.40
2022-08-05T08:12:37.318Z,81.70
2022-08-05T08:15:15.348Z,82.10
2022-08-05T08:17:52.901Z,82.20
2022-08-05T08:21:00.666Z,82.60
2022-08-05T08:23:11.583Z,81.60
2022-08-05T08:26:00.653Z,81.10
2022-08-05T08:28:36.746Z,80.90
2022-08-05T08:31:18.171Z,80.30
2022-08-05T08:33:46.869Z,80.00
2022-08-05T08:36:38.384Z,78.90
2022-08-05T08:39:06.862Z,77.50
2022-08-05T08:41:51.288Z,76.30
2022-08-05T08:45:21.058Z,77.40
2022-08-05T08:47:47.261Z,78.20
2022-08-05T08:50:32.978Z,77.10
2022-08-05T08:52:54.160Z,76.80
2022-08-05T08:56:01.652Z,75.30
2022-08-05T08:58:13.122Z,74.60
2022-08-05T09:00:40.951Z,73.60
2022-08-05T09:03:10.459Z,72.90
2022-08-05T09:05:38.707Z,73.30
2022-08-05T09:08:26.527Z,73.60
2022-08-05T09:10:54.627Z,75.00
2022-08-05T09:13:23.466Z,72.80
2022-08-05T09:15:51.482Z,71.10
2022-08-05T09:18:18.740Z,71.90
2022-08-05T09:20:47.107Z,71.90
2022-08-05T09:23:21.556Z,73.30
2022-08-05T09:26:02.841Z,71.60
2022-08-05T09:28:34.013Z,70.90
2022-08-05T09:32:39.098Z,71.70
2022-08-05T09:34:02.590Z,71.90
2022-08-05T09:36:55.602Z,70.80
2022-08-05T09:39:42.016Z,71.30
2022-08-05T09:42:23.436Z,70.30
2022-08-05T09:44:56.565Z,71.20
2022-08-05T09:47:34.924Z,70.70
2022-08-05T09:50:13.786Z,70.70
2022-08-05T09:52:45.835Z,71.70
2022-08-05T09:55:57.427Z,69.10
2022-08-05T09:58:00.436Z,69.70
2022-08-05T10:00:30.638Z,68.60
2022-08-05T10:02:59.003Z,69.30
2022-08-05T10:05:28.642Z,68.20
2022-08-05T10:08:35.510Z,67.60
2022-08-05T10:10:54.281Z,67.90
2022-08-05T10:13:43.993Z,66.30
2022-08-05T10:16:41.810Z,67.80
2022-08-05T10:19:23.445Z,66.60
2022-08-05T10:21:59.157Z,65.40
2022-08-05T10:24:27.009Z,66.70
2022-08-05T10:27:00.450Z,67.00
2022-08-05T10:30:41.263Z,66.40
2022-08-05T10:32:53.354Z,64.90
2022-08-05T10:35:04.947Z,65.10
2022-08-05T10:37:40.514Z,66.70
2022-08-05T10:40:40.636Z,64.90
2022-08-05T10:43:36.787Z,65.20
2022-08-05T10:46:08.118Z,64.30
2022-08-05T10:48:58.138Z,63.50
2022-08-05T10:52:00.399Z,64.00
2022-08-05T10:54:56.855Z,64.10
2022-08-05T10:57:31.001Z,64.20
2022-08-05T11:00:18.584Z,64.80
2022-08-05T11:03:23.747Z,64.10
2022-08-05T11:06:15.266Z,63.50
2022-08-05T11:09:32.501Z,63.30
2022-08-05T11:12:37.434Z,62.80
2022-08-05T11:16:01.008Z,61.50
2022-08-05T11:18:34.268Z,63.00
2022-08-05T11:21:06.244Z,63.10
2022-08-05T11:24:04.449Z,61.60
2022-08-05T11:26:32.609Z,60.40
2022-08-05T11:29:13.916Z,61.40
2022-08-05T11:31:58.790Z,60.80
2022-08-05T11:34:39.389Z,61.60
2022-08-05T11:38:30.407Z,60.40
2022-08-05T11:40:00.733Z,59.50
2022-08-05T11:42:37.760Z,59.50
2022-08-05T11:45:14.189Z,60.80
2022-08-05T11:47:50.639Z,59.60
2022-08-05T11:50:22.450Z,59.40
2022-08-05T11:52:52.048Z,59.90
2022-08-05T11:55:21.492Z,59.90
2022-08-05T11:58:11.052Z,58.20
2022-08-05T12:00:41.386Z,59.80
2022-08-05T12:03:29.651Z,59.10
2022-08-05T12:06:01.804Z,58.60
2022-08-05T12:08:31.461Z,58.50
2022-08-05T12:11:05.503Z,58.90
2022-08-05T12:13:48.731Z,58.60
2022-08-05T12:16:19.101Z,59.20
2022-08-05T12:18:49.542Z,59.80
2022-08-05T12:21:39.103Z,59.50
2022-08-05T12:24:17.283Z,59.20
2022-08-05T12:26:44.535Z,60.00
2022-08-05T12:29:17.834Z,59.10
2022-08-05T12:31:57.109Z,58.70
2022-08-05T12:34:28.694Z,58.50
2022-08-05T12:37:10.742Z,59.50
2022-08-05T12:39:39.538Z,59.50
2022-08-05T12:42:15.966Z,57.60
2022-08-05T12:44:44.681Z,60.30
2022-08-05T12:47:17.242Z,59.10
2022-08-05T12:50:03.538Z,58.70
2022-08-05T12:52:41.874Z,57.90
2022-08-05T12:55:22.344Z,57.20
2022-08-05T12:58:48.882Z,58.20
2022-08-05T13:02:00.692Z,57.60
2022-08-05T13:03:32.596Z,57.70
2022-08-05T13:06:06.653Z,56.30
2022-08-05T13:08:38.749Z,57.80
2022-08-05T13:11:07.889Z,57.50
2022-08-05T13:14:05.103Z,57.70
2022-08-05T13:16:27.982Z,55.70
2022-08-05T13:18:58.544Z,57.00
2022-08-05T13:21:28.326Z,57.20
2022-08-05T13:24:06.267Z,57.30
2022-08-05T13:26:36.128Z,58.50
2022-08-05T13:29:05.213Z,57.20
2022-08-05T13:32:03.411Z,55.70
2022-08-05T13:34:22.020Z,56.30
2022-08-05T13:36:53.543Z,56.50
2022-08-05T13:40:14.008Z,57.10
2022-08-05T13:42:14.551Z,56.90
2022-08-05T13:44:46.023Z,57.00
2022-08-05T13:47:36.089Z,57.20
2022-08-05T13:50:04.624Z,57.20
2022-08-05T13:52:35.299Z,57.00
2022-08-05T13:55:07.350Z,57.40
2022-08-05T13:57:50.678Z,57.50
2022-08-05T14:00:26.975Z,57.80
2022-08-05T14:02:56.993Z,58.60
2022-08-05T14:05:29.502Z,58.10
2022-08-05T14:08:21.168Z,58.90
2022-08-05T14:11:03.249Z,59.90
2022-08-05T14:13:42.333Z,59.70
2022-08-05T14:16:11.520Z,60.60
2022-08-05T14:18:38.888Z,59.30
2022-08-05T14:22:07.455Z,59.90
2022-08-05T14:23:53.510Z,60.10
2022-08-05T14:26:36.995Z,62.50
2022-08-05T14:29:16.683Z,63.30
2022-08-05T14:32:03.945Z,71.80
2022-08-05T14:34:35.467Z,72.90
2022-08-05T14:37:04.390Z,71.40
2022-08-05T14:39:50.144Z,72.50
2022-08-05T14:42:29.304Z,74.40
2022-08-05T14:44:56.828Z,79.20
2022-08-05T14:48:03.360Z,75.20
2022-08-05T14:50:18.369Z,78.90
2022-08-05T14:52:57.832Z,80.60
2022-08-05T14:55:39.334Z,78.90
2022-08-05T14:58:11.638Z,82.80
2022-08-05T15:00:59.467Z,76.50
2022-08-05T15:03:33.769Z,78.80
2022-08-05T15:06:12.934Z,76.30
2022-08-05T15:08:59.213Z,79.90
2022-08-05T15:11:52.864Z,76.40
2022-08-05T15:14:33.952Z,73.20
2022-08-05T15:17:04.151Z,76.40
2022-08-05T15:19:33.048Z,74.70
2022-08-05T15:22:01.482Z,73.90
2022-08-05T15:24:29.640Z,73.30
2022-08-05T15:26:57.946Z,73.90
2022-08-05T15:29:29.907Z,74.90
2022-08-05T15:32:02.224Z,74.50
2022-08-05T15:34:32.281Z,75.50
2022-08-05T15:37:07.033Z,74.50
2022-08-05T15:41:01.708Z,74.10
2022-08-05T15:42:56.273Z,73.80
2022-08-05T15:45:16.436Z,74.90
2022-08-05T15:47:46.343Z,75.70
2022-08-05T15:50:15.988Z,77.10
2022-08-05T15:52:53.640Z,76.50
2022-08-05T15:55:24.934Z,77.50
2022-08-05T15:58:09.204Z,75.10
2022-08-05T16:00:50.601Z,75.40
2022-08-05T16:03:33.851Z,77.70
2022-08-05T16:06:01.282Z,75.80
2022-08-05T16:08:30.384Z,76.30
2022-08-05T16:10:58.618Z,74.80
2022-08-05T16:13:34.352Z,75.40
2022-08-05T16:16:06.441Z,76.40
2022-08-05T16:18:34.095Z,77.00
2022-08-05T16:21:04.163Z,77.60
2022-08-05T16:23:33.008Z,75.90
2022-08-05T16:26:20.105Z,77.50
2022-08-05T16:28:53.606Z,75.80
2022-08-05T16:31:22.481Z,76.30
2022-08-05T16:33:52.184Z,76.80
2022-08-05T16:36:23.868Z,76.70
2022-08-05T16:38:54.530Z,77.50
2022-08-05T16:42:15.369Z,77.40
2022-08-05T16:44:12.021Z,77.80
2022-08-05T16:46:41.360Z,78.30
2022-08-05T16:49:23.304Z,79.30
2022-08-05T16:51:51.217Z,79.00
2022-08-05T16:54:28.681Z,79.10
2022-08-05T16:56:59.008Z,78.30
2022-08-05T16:59:27.861Z,79.40
2022-08-05T17:01:58.074Z,79.80
2022-08-05T17:04:27.808Z,80.40
2022-08-05T17:07:01.235Z,79.30
2022-08-05T17:09:29.879Z,80.10
2022-08-05T17:11:59.927Z,79.30
2022-08-05T17:14:37.290Z,79.30
2022-08-05T17:17:14.567Z,80.10
2022-08-05T17:19:45.325Z,80.50
2022-08-05T17:22:24.712Z,80.30
2022-08-05T17:24:58.287Z,80.50
2022-08-05T17:27:33.501Z,79.90
2022-08-05T17:30:12.202Z,80.60
2022-08-05T17:32:46.352Z,81.40
2022-08-05T17:35:15.661Z,79.80
2022-08-05T17:37:48.363Z,81.10
2022-08-05T17:40:18.371Z,80.70
2022-08-05T17:42:52.192Z,81.60
2022-08-05T17:45:22.913Z,81.70
2022-08-05T17:47:54.848Z,81.90
2022-08-05T17:50:28.299Z,82.50
2022-08-05T17:53:01.729Z,83.40
2022-08-05T17:55:37.931Z,83.60
2022-08-05T17:58:09.449Z,83.80
2022-08-05T18:00:39.868Z,85.00
2022-08-05T18:03:12.896Z,85.40
2022-08-05T18:05:55.415Z,85.60
2022-08-05T18:08:30.499Z,86.10
2022-08-05T18:10:57.426Z,85.60
2022-08-05T18:13:25.677Z,85.90
2022-08-05T18:15:53.108Z,85.80
2022-08-05T18:18:21.649Z,85.90
2022-08-05T18:20:53.320Z,85.60
2022-08-05T18:23:22.406Z,85.70
2022-08-05T18:25:57.832Z,86.60
2022-08-05T18:28:28.220Z,86.70
2022-08-05T18:30:55.484Z,87.20
2022-08-05T18:33:24.065Z,87.10
2022-08-05T18:36:03.968Z,87.10
2022-08-05T18:38:37.031Z,87.50
2022-08-05T18:41:56.853Z,88.10
2022-08-05T18:43:52.343Z,88.40
2022-08-05T18:46:20.420Z,88.70
2022-08-05T18:48:51.937Z,89.00
2022-08-05T18:52:06.205Z,90.10
2022-08-05T18:54:31.285Z,90.70
2022-08-05T18:57:01.195Z,91.50
2022-08-05T18:59:42.777Z,92.10
2022-08-05T19:02:27.747Z,92.40
2022-08-05T19:05:02.769Z,92.70
2022-08-05T19:07:47.978Z,93.00
2022-08-05T19:10:18.654Z,93.10
2022-08-05T19:12:53.663Z,93.20
2022-08-05T19:15:45.059Z,93.30
2022-08-05T19:18:09.614Z,93.30
2022-08-05T19:20:41.509Z,93.40
2022-08-05T19:24:04.119Z,93.60
2022-08-05T19:26:01.616Z,93.50
2022-08-05T19:28:34.660Z,93.80
2022-08-05T19:31:04.971Z,93.70
2022-08-05T19:33:36.134Z,93.70
2022-08-05T19:36:06.470Z,94.10
2022-08-05T19:38:36.717Z,94.30
2022-08-05T19:41:09.138Z,94.40
2022-08-05T19:44:06.549Z,94.00
2022-08-05T19:46:30.990Z,94.10
2022-08-05T19:49:01.215Z,94.30
2022-08-05T19:52:05.639Z,94.50
2022-08-05T19:54:25.564Z,94.70
2022-08-05T19:56:59.865Z,94.70
2022-08-05T20:00:00.784Z,95.20
2022-08-05T20:02:18.096Z,95.30
2022-08-05T20:04:48.489Z,95.40
2022-08-05T20:07:15.866Z,95.70
2022-08-05T20:10:11.773Z,96.00
2022-08-05T20:12:47.789Z,95.60
2022-08-05T20:15:22.927Z,95.80
2022-08-05T20:18:10.769Z,95.70
2022-08-05T20:20:51.971Z,95.50
2022-08-05T20:23:23.255Z,95.10
2022-08-05T20:25:52.275Z,95.00
2022-08-05T20:28:19.500Z,94.90
2022-08-05T20:30:46.631Z,94.60
2022-08-05T20:33:16.524Z,94.40
2022-08-05T20:35:45.668Z,94.50
2022-08-05T20:38:20.139Z,94.80
2022-08-05T20:40:55.483Z,96.80
2022-08-05T20:43:32.322Z,96.60
2022-08-05T20:46:24.864Z,97.20
2022-08-05T20:48:52.136Z,97.60
2022-08-05T20:51:19.100Z,97.60
2022-08-05T20:53:56.389Z,99.10
2022-08-05T20:56:29.769Z,99.40
2022-08-05T20:59:00.070Z,99.90
2022-08-05T21:01:41.537Z,99.90
2022-08-05T21:04:10.538Z,99.90
2022-08-05T21:06:45.921Z,99.90
2022-08-05T21:09:14.461Z,99.90
2022-08-05T21:12:09.901Z,99.90
2022-08-05T21:14:35.334Z,99.90
2022-08-05T21:17:05.170Z,99.90
2022-08-05T21:19:46.669Z,99.90
2022-08-05T21:22:17.775Z,99.90
2022-08-05T21:24:48.844Z,99.90
2022-08-05T21:27:18.588Z,99.90
2022-08-05T21:29:48.220Z,99.90
2022-08-05T21:32:19.921Z,99.90
2022-08-05T21:35:06.950Z,99.90
2022-08-05T21:37:35.030Z,99.90
2022-08-05T21:40:13.081Z,99.90
2022-08-05T21:42:44.764Z,99.90
2022-08-05T21:45:24.221Z,99.90
2022-08-05T21:47:56.774Z,99.90
2022-08-05T21:50:25.911Z,99.90
2022-08-05T21:52:53.437Z,99.90
2022-08-05T21:55:42.768Z,99.90
2022-08-05T21:58:10.236Z,99.90
2022-08-05T22:00:38.741Z,99.90
2022-08-05T22:03:09.786Z,99.90
2022-08-05T22:05:48.701Z,99.90
2022-08-05T22:08:22.480Z,99.90
2022-08-05T22:10:51.611Z,99.90
2022-08-05T22:14:20.032Z,99.90
2022-08-05T22:16:26.033Z,99.90
2022-08-05T22:18:54.691Z,99.90
2022-08-05T22:21:25.875Z,99.90
2022-08-05T22:24:13.202Z,99.90
2022-08-05T22:27:17.578Z,99.90
2022-08-05T22:29:44.686Z,99.90
2022-08-05T22:32:17.249Z,99.90
2022-08-05T22:34:45.804Z,99.90
2022-08-05T22:37:13.011Z,99.90
2022-08-05T22:39:40.097Z,99.90
2022-08-05T22:42:12.380Z,99.90
2022-08-05T22:44:48.439Z,99.90
2022-08-05T22:47:29.237Z,99.90
2022-08-05T22:50:21.846Z,99.90
2022-08-05T22:52:45.029Z,99.90
2022-08-05T22:55:19.040Z,99.90
2022-08-05T22:57:49.064Z,99.90
2022-08-05T23:00:18.197Z,99.90
2022-08-05T23:02:49.350Z,99.90
2022-08-05T23:05:17.274Z,99.90
2022-08-05T23:07:48.493Z,99.90
2022-08-05T23:10:19.942Z,99.90
2022-08-05T23:12:51.357Z,99.90
2022-08-05T23:15:21.480Z,99.90
2022-08-05T23:18:02.347Z,99.90
2022-08-05T23:20:37.082Z,99.90
2022-08-05T23:23:08.430Z,99.90
2022-08-05T23:25:52.672Z,99.90
2022-08-05T23:28:27.741Z,99.90
2022-08-05T23:31:16.387Z,99.90
2022-08-05T23:34:05.175Z,99.90
2022-08-05T23:36:39.803Z,99.90
2022-08-05T23:39:17.357Z,99.90
2022-08-05T23:41:58.526Z,99.90
2022-08-05T23:44:28.037Z,99.90
2022-08-05T23:47:02.567Z,99.90
2022-08-05T23:49:42.866Z,99.90
2022-08-05T23:52:32.016Z,99.90
2022-08-05T23:55:05.235Z,99.90
2022-08-05T23:57:34.182Z,99.90
